Time;durP1;ratioP1;P1;durP2;ratioP2;P2;SDS_P1;SDS_P2;PMS_P1;PMS_P2;Temp;Humidity;BMP_temperature;BMP_pressure;BME280_temperature;BME280_humidity;BME280_pressure;Samples;Min_cycle;Max_cycle;Signal;HPM_P1;HPM_P2
2022/10/13 00:00:42;;;;;;;22.08;11.77;;;;;;;13.10;74.10;101684.56;3580630;40;20379;-63
2022/10/13 00:03:08;;;;;;;21.63;12.85;;;;;;;13.10;74.28;101689.97;3576994;40;20046;-63
2022/10/13 00:05:40;;;;;;;23.70;12.43;;;;;;;13.07;73.65;101692.84;3579008;40;20343;-63
2022/10/13 00:08:07;;;;;;;19.33;12.60;;;;;;;13.11;74.01;101678.22;3580287;40;20048;-63
2022/10/13 00:10:37;;;;;;;18.05;11.95;;;;;;;13.07;74.35;101682.06;3579669;39;20086;-63
2022/10/13 00:13:04;;;;;;;19.38;12.25;;;;;;;12.72;74.35;101611.25;3578845;40;20126;-63
2022/10/13 00:15:30;;;;;;;19.23;12.63;;;;;;;13.08;74.09;101674.81;3578767;40;20056;-63
2022/10/13 00:17:55;;;;;;;19.73;11.98;;;;;;;13.06;74.41;101691.09;3579524;40;20071;-63
2022/10/13 00:20:21;;;;;;;20.15;11.30;;;;;;;13.05;74.11;101667.75;3578048;40;20064;-63
2022/10/13 00:22:47;;;;;;;20.33;11.93;;;;;;;12.98;74.40;101650.19;3578720;39;20048;-63
2022/10/13 00:25:12;;;;;;;23.52;12.10;;;;;;;13.00;74.75;101665.34;3578682;40;20051;-63
2022/10/13 00:27:38;;;;;;;22.85;12.60;;;;;;;12.51;74.76;101578.28;3578858;40;20083;-63
2022/10/13 00:30:05;;;;;;;18.13;11.85;;;;;;;12.97;74.70;101653.84;3576363;40;20320;-63
2022/10/13 00:32:30;;;;;;;20.23;11.70;;;;;;;12.40;74.67;101556.47;3578972;40;20048;-63
2022/10/13 00:34:56;;;;;;;19.95;11.50;;;;;;;12.98;75.06;101663.69;3575908;40;21497;-63
2022/10/13 00:37:23;;;;;;;17.95;12.45;;;;;;;12.93;74.89;101649.59;3578062;40;20072;-63
2022/10/13 00:39:48;;;;;;;16.85;11.50;;;;;;;12.99;74.82;101652.78;3578655;40;20060;-63
2022/10/13 00:42:14;;;;;;;17.70;11.55;;;;;;;12.99;74.75;101651.94;3580764;40;20066;-63
2022/10/13 00:45:04;;;;;;;22.40;11.90;;;;;;;12.23;74.48;101528.66;3579687;40;20096;-63
2022/10/13 00:47:47;;;;;;;20.95;12.23;;;;;;;12.93;74.67;101636.97;3578126;40;20052;-63
2022/10/13 00:50:24;;;;;;;20.05;12.13;;;;;;;11.79;74.68;101445.81;3576024;40;20045;-62
2022/10/13 00:52:54;;;;;;;21.65;12.18;;;;;;;12.96;74.79;101634.09;3579964;40;20399;-62
2022/10/13 00:55:26;;;;;;;27.30;12.77;;;;;;;12.99;74.95;101651.94;3579692;40;20411;-62
2022/10/13 00:57:54;;;;;;;20.58;12.13;;;;;;;13.00;74.86;101645.56;3579619;40;20543;-62
2022/10/13 01:00:24;;;;;;;18.77;11.68;;;;;;;12.97;74.89;101643.94;3580723;40;20152;-63
2022/10/13 01:02:52;;;;;;;20.33;11.70;;;;;;;13.02;74.68;101646.34;3577687;40;20409;-63
2022/10/13 01:05:21;;;;;;;23.45;11.68;;;;;;;13.04;74.66;101648.97;3581303;40;20058;-63
2022/10/13 01:07:49;;;;;;;21.23;12.27;;;;;;;13.00;74.82;101642.88;3579370;40;20288;-63
2022/10/13 01:10:29;;;;;;;28.02;11.93;;;;;;;13.00;74.69;101650.97;3578278;40;20270;-63
2022/10/13 01:13:38;;;;;;;21.50;11.70;;;;;;;12.98;74.69;101650.19;3579096;40;20137;-63
2022/10/13 01:16:38;;;;;;;25.45;11.77;;;;;;;12.99;74.83;101649.22;3578825;40;20071;-63
2022/10/13 01:19:41;;;;;;;19.50;11.15;;;;;;;13.00;75.35;101648.25;3578271;40;20315;-63
2022/10/13 01:22:51;;;;;;;24.58;12.30;;;;;;;12.24;75.09;101522.31;3577880;40;20434;-63
2022/10/13 01:25:31;;;;;;;20.60;11.15;;;;;;;12.98;75.10;101650.19;3579203;40;20056;-63
2022/10/13 01:28:21;;;;;;;21.83;12.43;;;;;;;12.99;75.38;101643.84;3577785;40;20059;-63
2022/10/13 01:31:09;;;;;;;18.27;10.73;;;;;;;12.93;75.07;101641.50;3576467;40;20110;-63
2022/10/13 01:34:31;;;;;;;22.17;10.95;;;;;;;12.97;75.27;101640.34;3577168;40;20068;-63
2022/10/13 01:37:28;;;;;;;18.45;10.98;;;;;;;12.99;75.28;101642.00;3536455;40;20062;-63
2022/10/13 01:40:15;;;;;;;25.67;12.18;;;;;;;12.63;75.44;101580.28;3577890;40;20056;-63
2022/10/13 01:43:06;;;;;;;23.63;12.20;;;;;;;13.03;75.27;101639.97;3581209;40;20056;-63
2022/10/13 01:45:54;;;;;;;21.17;11.75;;;;;;;13.02;75.59;101635.56;3578721;40;20375;-63
2022/10/13 01:48:21;;;;;;;22.05;11.45;;;;;;;13.04;75.11;101633.66;3578334;40;20056;-63
2022/10/13 01:50:49;;;;;;;21.52;11.52;;;;;;;13.04;75.38;101632.78;3581298;40;20075;-63
2022/10/13 01:53:19;;;;;;;18.77;11.80;;;;;;;13.04;75.60;101627.38;3580263;39;20068;-63
2022/10/13 01:55:55;;;;;;;23.00;11.05;;;;;;;12.42;75.47;101516.81;3581167;40;20055;-63
2022/10/13 01:58:25;;;;;;;23.45;11.45;;;;;;;13.09;75.42;101623.44;3579390;40;20057;-62
2022/10/13 02:01:04;;;;;;;22.75;11.27;;;;;;;13.13;75.07;101622.31;3578701;40;20098;-62
2022/10/13 02:04:25;;;;;;;19.67;11.52;;;;;;;12.57;75.34;101521.31;3578808;40;20425;-61
2022/10/13 02:07:29;;;;;;;19.20;10.88;;;;;;;13.14;75.45;101615.94;3573790;40;20154;-62
2022/10/13 02:10:24;;;;;;;21.27;10.52;;;;;;;13.15;75.67;101606.88;3577824;40;20074;-62
2022/10/13 02:13:02;;;;;;;18.90;11.15;;;;;;;12.50;75.57;101499.22;3578385;40;20048;-63
2022/10/13 02:15:39;;;;;;;20.20;11.02;;;;;;;13.20;75.61;101607.47;3584792;39;20380;-62
2022/10/13 02:18:11;;;;;;;20.92;11.18;;;;;;;12.53;75.55;101490.97;3576944;40;20107;-63
2022/10/13 02:20:39;;;;;;;23.20;10.90;;;;;;;13.26;75.52;101602.66;3576837;40;20114;-62
2022/10/13 02:23:12;;;;;;;22.52;11.18;;;;;;;13.27;75.20;101585.53;3578109;40;20092;-63
2022/10/13 02:25:41;;;;;;;20.25;11.38;;;;;;;13.29;74.79;101611.47;3578205;40;20090;-62
2022/10/13 02:28:08;;;;;;;17.30;10.63;;;;;;;12.61;74.98;101470.75;3581175;40;20062;-63
2022/10/13 02:30:34;;;;;;;18.05;10.23;;;;;;;13.30;75.07;101585.34;3578644;40;20063;-63
2022/10/13 02:33:01;;;;;;;19.88;11.05;;;;;;;12.58;75.19;101482.56;3579513;40;20056;-62
2022/10/13 02:35:28;;;;;;;17.08;10.82;;;;;;;13.32;75.35;101583.41;3580172;40;20196;-63
2022/10/13 02:37:54;;;;;;;20.17;11.13;;;;;;;12.62;75.30;101470.63;3577412;40;20065;-63
2022/10/13 02:40:20;;;;;;;21.63;11.07;;;;;;;13.35;75.45;101594.00;3576156;40;20121;-63
2022/10/13 02:42:46;;;;;;;17.58;10.52;;;;;;;13.34;75.10;101581.50;3579418;39;20064;-63
2022/10/13 02:45:11;;;;;;;19.15;11.15;;;;;;;12.66;75.00;101457.84;3579410;40;20095;-62
2022/10/13 02:47:37;;;;;;;21.75;11.50;;;;;;;13.37;75.44;101587.56;3581960;40;20060;-63
2022/10/13 02:50:04;;;;;;;20.58;11.35;;;;;;;13.38;75.42;101583.03;3579374;40;20060;-63
2022/10/13 02:52:29;;;;;;;21.05;10.90;;;;;;;13.37;75.29;101575.91;3580455;40;20060;-63
2022/10/13 02:54:55;;;;;;;22.75;10.90;;;;;;;13.39;75.12;101574.84;3577671;40;20063;-63
2022/10/13 02:57:21;;;;;;;19.10;10.93;;;;;;;13.36;75.16;101574.16;3578662;40;20082;-63
2022/10/13 02:59:47;;;;;;;23.42;11.13;;;;;;;13.42;75.08;101573.78;3579989;40;20056;-62
2022/10/13 03:02:13;;;;;;;20.13;10.55;;;;;;;13.42;75.24;101579.19;3578259;40;20063;-63
2022/10/13 03:04:39;;;;;;;17.38;11.50;;;;;;;12.52;75.33;101431.69;3577113;40;20044;-63
2022/10/13 03:07:05;;;;;;;17.98;10.65;;;;;;;12.75;75.39;101476.19;3577238;40;20298;-63
2022/10/13 03:09:31;;;;;;;21.85;11.40;;;;;;;13.39;75.10;101576.69;3579843;40;20056;-64
2022/10/13 03:11:56;;;;;;;16.83;10.43;;;;;;;12.84;75.01;101480.13;3578512;40;20048;-64
2022/10/13 03:14:22;;;;;;;18.27;11.27;;;;;;;13.22;75.20;101540.75;3577312;40;20056;-63
2022/10/13 03:16:47;;;;;;;18.50;10.25;;;;;;;13.39;74.74;101563.19;3582074;40;20055;-63
2022/10/13 03:19:13;;;;;;;19.83;10.98;;;;;;;13.39;75.44;101563.19;3578414;40;20063;-63
2022/10/13 03:21:39;;;;;;;17.55;10.23;;;;;;;12.69;75.02;101453.16;3580105;40;20072;-63
2022/10/13 03:24:05;;;;;;;16.05;11.18;;;;;;;13.37;75.37;101570.50;3575081;40;20056;-63
2022/10/13 03:26:32;;;;;;;16.15;10.40;;;;;;;13.28;75.57;101549.47;3575916;40;20362;-63
2022/10/13 03:28:57;;;;;;;19.33;10.70;;;;;;;13.36;75.46;101563.38;3577706;40;20117;-62
2022/10/13 03:31:23;;;;;;;19.85;11.25;;;;;;;13.34;75.42;101559.88;3576108;40;20060;-64
2022/10/13 03:33:50;;;;;;;18.17;10.43;;;;;;;12.64;75.25;101446.28;3574263;40;20480;-64
2022/10/13 03:36:17;;;;;;;17.77;10.65;;;;;;;13.35;75.30;101553.50;3578063;40;20048;-64
2022/10/13 03:38:43;;;;;;;18.13;10.32;;;;;;;12.52;75.40;101416.38;3575966;40;20063;-63
2022/10/13 03:41:14;;;;;;;19.38;10.80;;;;;;;13.35;75.47;101558.91;3576322;39;20416;-63
2022/10/13 03:43:43;;;;;;;20.83;11.38;;;;;;;13.37;75.55;101559.69;3579697;40;20276;-63
2022/10/13 03:46:13;;;;;;;14.07;10.50;;;;;;;13.38;75.60;101556.03;3577775;40;20060;-63
2022/10/13 03:48:39;;;;;;;16.17;10.80;;;;;;;13.38;75.59;101556.03;3577383;40;20117;-63
2022/10/13 03:51:12;;;;;;;22.17;11.52;;;;;;;13.38;75.35;101550.63;3577136;40;20052;-63
2022/10/13 03:53:37;;;;;;;18.02;10.85;;;;;;;13.37;75.69;101541.66;3576999;40;20064;-63
2022/10/13 03:56:05;;;;;;;17.55;10.40;;;;;;;13.36;75.45;101536.38;3576951;40;20130;-63
2022/10/13 03:58:31;;;;;;;18.45;10.80;;;;;;;13.39;75.50;101538.88;3579897;39;20427;-63
2022/10/13 04:01:04;;;;;;;19.40;10.10;;;;;;;13.36;75.22;101529.13;3576870;40;20106;-63
2022/10/13 04:03:32;;;;;;;17.80;11.45;;;;;;;13.39;75.38;101526.22;3574901;40;20056;-63
2022/10/13 04:06:03;;;;;;;16.13;10.43;;;;;;;13.43;75.04;101532.31;3578132;40;20056;-63
2022/10/13 04:08:32;;;;;;;16.08;9.77;;;;;;;13.42;75.75;101531.44;3575519;40;20329;-63
2022/10/13 04:11:05;;;;;;;17.00;11.32;;;;;;;13.42;75.67;101519.78;3578342;40;20064;-63
2022/10/13 04:13:32;;;;;;;16.17;10.93;;;;;;;13.40;75.38;101522.56;3576997;40;20068;-64
2022/10/13 04:16:20;;;;;;;18.67;11.13;;;;;;;13.39;75.47;101523.53;3578143;40;20056;-63
2022/10/13 04:18:56;;;;;;;21.27;10.65;;;;;;;13.39;76.12;101519.97;3576136;40;20084;-63
2022/10/13 04:21:23;;;;;;;16.77;10.85;;;;;;;12.67;75.50;101402.94;3573968;40;20064;-63
2022/10/13 04:23:49;;;;;;;18.83;11.48;;;;;;;12.91;75.89;101441.03;3574549;40;20071;-63
2022/10/13 04:26:21;;;;;;;17.65;11.13;;;;;;;12.73;75.60;101397.16;3577007;40;20413;-63
2022/10/13 04:28:50;;;;;;;18.05;11.43;;;;;;;13.44;75.17;101513.28;3580039;40;20067;-63
2022/10/13 04:31:16;;;;;;;19.70;10.88;;;;;;;13.43;75.13;101503.47;3583342;39;20101;-62
2022/10/13 04:33:43;;;;;;;18.65;11.27;;;;;;;13.46;75.36;101499.72;3576781;40;20067;-62
2022/10/13 04:36:12;;;;;;;17.00;11.45;;;;;;;12.95;75.23;101412.91;3578162;40;20092;-62
2022/10/13 04:38:38;;;;;;;19.83;11.55;;;;;;;13.48;75.38;101503.19;3575837;40;20052;-62
2022/10/13 04:41:07;;;;;;;17.00;11.48;;;;;;;13.45;75.25;101500.69;3581672;40;20080;-62
2022/10/13 04:43:33;;;;;;;19.58;10.93;;;;;;;13.53;74.98;101506.44;3581968;40;20064;-62
2022/10/13 04:46:01;;;;;;;16.48;11.15;;;;;;;13.49;75.13;101513.03;3576582;40;20131;-62
2022/10/13 04:48:27;;;;;;;16.00;10.32;;;;;;;13.49;75.45;101507.63;3580328;40;20156;-62
2022/10/13 04:51:12;;;;;;;18.38;10.55;;;;;;;13.45;74.86;101500.69;3581037;40;20068;-63
2022/10/13 04:53:39;;;;;;;16.35;10.70;;;;;;;13.39;74.90;101492.97;3576893;40;20315;-63
2022/10/13 04:56:09;;;;;;;17.98;11.02;;;;;;;13.48;74.93;101503.19;3577290;40;20052;-63
2022/10/13 04:58:37;;;;;;;18.65;10.75;;;;;;;13.01;74.95;101429.56;3584894;40;20279;-63
2022/10/13 05:01:06;;;;;;;18.00;11.10;;;;;;;12.83;74.66;101392.06;3578188;40;20059;-63
2022/10/13 05:03:33;;;;;;;19.25;10.88;;;;;;;13.49;74.95;101494.13;3577913;40;20056;-63
2022/10/13 05:05:59;;;;;;;18.08;10.10;;;;;;;13.53;74.91;101500.19;3579608;40;20067;-63
2022/10/13 05:08:25;;;;;;;16.13;10.55;;;;;;;13.52;74.69;101503.84;3579499;40;20056;-63
2022/10/13 05:11:00;;;;;;;17.27;10.68;;;;;;;13.51;74.63;101513.81;3579478;40;20083;-63
2022/10/13 05:13:28;;;;;;;19.92;11.32;;;;;;;13.51;75.08;101507.50;3585427;40;20395;-63
2022/10/13 05:15:55;;;;;;;20.63;11.10;;;;;;;13.52;75.03;101510.13;3580257;40;20052;-64
2022/10/13 05:18:21;;;;;;;17.40;11.13;;;;;;;13.54;75.15;101501.91;3585391;39;20137;-64
2022/10/13 05:20:47;;;;;;;16.95;11.18;;;;;;;13.52;74.95;101502.03;3579443;40;20052;-64
2022/10/13 05:23:14;;;;;;;18.88;11.18;;;;;;;13.45;74.92;101493.44;3574763;40;20102;-63
2022/10/13 05:25:40;;;;;;;18.60;10.20;;;;;;;13.48;75.16;101500.50;3578232;40;20060;-64
2022/10/13 05:28:07;;;;;;;19.95;10.57;;;;;;;13.01;75.25;101418.78;3576255;40;20423;-64
2022/10/13 05:30:33;;;;;;;18.77;11.00;;;;;;;13.50;75.18;101517.44;3577997;40;20402;-64
2022/10/13 05:32:59;;;;;;;24.67;11.35;;;;;;;13.45;75.52;101509.66;3578841;40;20382;-64
2022/10/13 05:35:29;;;;;;;17.92;10.48;;;;;;;13.44;75.44;101501.63;3578302;40;20060;-63
2022/10/13 05:37:55;;;;;;;19.42;11.00;;;;;;;13.50;75.12;101505.78;3579727;40;20065;-64
2022/10/13 05:40:20;;;;;;;18.92;11.35;;;;;;;13.48;75.36;101508.59;3579422;40;20538;-63
2022/10/13 05:42:50;;;;;;;16.85;10.60;;;;;;;12.73;75.30;101387.25;3583711;40;20060;-63
2022/10/13 05:45:20;;;;;;;15.80;10.30;;;;;;;12.85;74.88;101395.56;3581071;40;20070;-63
2022/10/13 05:47:45;;;;;;;17.08;11.40;;;;;;;13.46;75.23;101505.97;3578592;40;20129;-64
2022/10/13 05:50:11;;;;;;;21.30;12.02;;;;;;;13.42;75.57;101492.78;3582411;39;20330;-63
2022/10/13 05:52:37;;;;;;;21.15;11.55;;;;;;;13.46;75.46;101494.31;3575610;40;20110;-63
2022/10/13 05:55:08;;;;;;;18.98;10.77;;;;;;;13.49;75.32;101504.91;3579901;40;20052;-63
2022/10/13 05:57:44;;;;;;;17.73;11.55;;;;;;;13.49;75.10;101504.91;3579795;40;20064;-63
2022/10/13 06:00:17;;;;;;;19.10;11.43;;;;;;;13.46;75.34;101505.97;3578691;40;20635;-63
2022/10/13 06:03:10;;;;;;;22.17;11.98;;;;;;;12.93;75.54;101417.50;3576781;40;20067;-63
2022/10/13 06:05:37;;;;;;;18.90;12.45;;;;;;;13.46;75.75;101507.81;3577687;40;20060;-63
2022/10/13 06:08:03;;;;;;;18.77;11.43;;;;;;;13.43;75.48;101491.78;3577196;40;20086;-63
2022/10/13 06:10:29;;;;;;;18.33;11.18;;;;;;;12.73;75.51;101371.06;3576595;40;20047;-63
2022/10/13 06:12:54;;;;;;;16.83;11.35;;;;;;;13.50;75.66;101500.38;3581906;40;20579;-63
2022/10/13 06:15:20;;;;;;;23.27;11.95;;;;;;;12.80;75.22;101370.69;3579646;40;20060;-63
2022/10/13 06:17:45;;;;;;;19.15;11.05;;;;;;;13.53;75.11;101490.25;3580906;39;20059;-63
2022/10/13 06:20:11;;;;;;;22.67;11.75;;;;;;;13.51;75.28;101473.28;3577473;40;20060;-63
2022/10/13 06:22:38;;;;;;;18.73;11.63;;;;;;;13.56;74.75;101487.34;3581732;40;20059;-63
2022/10/13 06:25:06;;;;;;;22.17;11.73;;;;;;;13.59;74.99;101497.97;3578559;40;20127;-63
2022/10/13 06:27:32;;;;;;;18.38;11.05;;;;;;;13.56;74.94;101471.13;3585447;40;20076;-63
2022/10/13 06:29:58;;;;;;;17.90;11.02;;;;;;;13.56;75.27;101479.25;3582568;40;20152;-63
2022/10/13 06:32:24;;;;;;;21.05;11.35;;;;;;;13.64;75.45;101492.28;3577784;40;20466;-63
2022/10/13 06:34:50;;;;;;;18.85;11.73;;;;;;;13.63;75.21;101480.56;3579088;40;20406;-63
2022/10/13 06:37:16;;;;;;;18.85;10.98;;;;;;;13.63;75.13;101475.16;3582179;39;20063;-63
2022/10/13 06:39:41;;;;;;;19.70;12.27;;;;;;;13.67;75.08;101482.13;3580438;40;20647;-63
2022/10/13 06:42:07;;;;;;;19.88;11.65;;;;;;;13.67;75.21;101492.09;3591714;39;20054;-63
2022/10/13 06:44:33;;;;;;;19.55;11.57;;;;;;;13.66;75.02;101474.97;3583339;40;20088;-63
2022/10/13 06:46:59;;;;;;;21.58;12.10;;;;;;;13.70;74.75;101481.03;3579316;40;20060;-63
2022/10/13 06:49:25;;;;;;;19.35;11.93;;;;;;;13.69;75.12;101496.41;3582062;40;20067;-63
2022/10/13 06:51:51;;;;;;;18.88;11.23;;;;;;;13.66;75.16;101477.69;3583021;40;20064;-63
2022/10/13 06:54:16;;;;;;;18.60;12.48;;;;;;;13.72;74.80;101480.97;3582620;40;20053;-63
2022/10/13 06:56:42;;;;;;;21.63;12.23;;;;;;;13.72;74.70;101473.72;3582754;39;20438;-63
2022/10/13 06:59:08;;;;;;;18.38;11.80;;;;;;;13.78;74.97;101480.56;3578211;40;20059;-63
2022/10/13 07:01:34;;;;;;;23.55;12.52;;;;;;;13.80;74.55;101486.75;3578454;40;20065;-63
2022/10/13 07:03:59;;;;;;;22.63;13.07;;;;;;;13.81;74.70;101483.94;3577287;40;20328;-63
2022/10/13 07:06:25;;;;;;;22.63;13.38;;;;;;;13.80;74.35;101475.94;3585662;39;20044;-63
2022/10/13 07:08:50;;;;;;;25.23;13.98;;;;;;;13.46;74.53;101418.69;3580032;40;20046;-63
2022/10/13 07:11:17;;;;;;;19.80;13.80;;;;;;;13.82;74.71;101476.69;3574584;40;20063;-62
2022/10/13 07:13:43;;;;;;;21.05;13.40;;;;;;;13.18;74.53;101363.72;3579407;40;20116;-63
2022/10/13 07:16:09;;;;;;;26.80;16.15;;;;;;;13.47;74.54;101417.72;3578090;40;20103;-68
2022/10/13 07:18:36;;;;;;;27.67;16.02;;;;;;;13.84;74.42;101489.16;3581070;40;20153;-63
2022/10/13 07:21:02;;;;;;;29.30;17.42;;;;;;;13.87;74.69;101493.50;3576150;40;20380;-63
2022/10/13 07:23:29;;;;;;;25.27;16.15;;;;;;;13.81;74.60;101472.25;3582516;40;20049;-63
2022/10/13 07:25:56;;;;;;;26.58;15.55;;;;;;;13.91;74.65;101479.66;3591880;40;20052;-63
2022/10/13 07:28:26;;;;;;;25.33;15.65;;;;;;;13.94;74.23;101481.31;3577768;40;20551;-63
2022/10/13 07:30:52;;;;;;;28.13;15.15;;;;;;;13.96;74.39;101487.47;3574327;40;20053;-64
2022/10/13 07:33:19;;;;;;;26.75;14.98;;;;;;;13.90;74.02;101482.47;3575897;40;20118;-63
2022/10/13 07:35:45;;;;;;;25.65;18.02;;;;;;;14.02;74.21;101497.91;3577765;40;20126;-63
2022/10/13 07:38:11;;;;;;;24.45;15.27;;;;;;;13.78;74.13;101451.72;3575163;40;20063;-62
2022/10/13 07:40:37;;;;;;;25.42;15.00;;;;;;;14.08;74.21;101483.09;3575281;40;20057;-63
2022/10/13 07:43:03;;;;;;;26.48;15.10;;;;;;;14.07;73.88;101484.94;3576784;40;20063;-63
2022/10/13 07:45:29;;;;;;;22.27;14.25;;;;;;;14.07;74.16;101474.13;3575057;40;20063;-63
2022/10/13 07:47:55;;;;;;;22.65;15.13;;;;;;;13.51;73.86;101377.84;3577883;40;20052;-63
2022/10/13 07:50:22;;;;;;;26.08;14.70;;;;;;;13.47;73.49;101356.44;3583037;40;20349;-64
2022/10/13 07:52:47;;;;;;;21.65;15.68;;;;;;;14.19;73.82;101477.84;3576974;40;20048;-64
2022/10/13 07:55:13;;;;;;;22.30;13.80;;;;;;;14.26;73.57;101475.59;3576421;40;20138;-64
2022/10/13 07:57:38;;;;;;;22.35;15.13;;;;;;;14.29;73.32;101475.41;3576656;40;20379;-64
2022/10/13 08:00:05;;;;;;;25.25;14.10;;;;;;;14.35;73.22;101477.69;3578908;40;20045;-63
2022/10/13 08:02:31;;;;;;;19.77;13.48;;;;;;;14.39;73.14;101469.25;3580583;40;20052;-63
2022/10/13 08:04:57;;;;;;;21.65;13.95;;;;;;;13.25;72.71;101269.72;3581429;39;20090;-63
2022/10/13 08:07:23;;;;;;;24.75;13.40;;;;;;;14.50;72.79;101471.25;3587864;39;20064;-63
2022/10/13 08:09:49;;;;;;;24.05;13.80;;;;;;;14.58;72.07;101482.44;3577569;40;20546;-64
2022/10/13 08:12:15;;;;;;;19.33;12.88;;;;;;;14.60;72.19;101475.09;3574358;40;20074;-63
2022/10/13 08:14:41;;;;;;;26.15;13.55;;;;;;;14.62;72.16;101478.56;3579227;40;20083;-64
2022/10/13 08:17:06;;;;;;;24.45;13.10;;;;;;;14.67;71.72;101485.50;3578990;40;20067;-63
2022/10/13 08:19:32;;;;;;;22.50;13.30;;;;;;;14.67;71.40;101475.53;3580333;40;20076;-63
2022/10/13 08:21:58;;;;;;;22.05;12.15;;;;;;;14.18;71.55;101384.19;3579612;40;20044;-63
2022/10/13 08:24:24;;;;;;;20.98;12.35;;;;;;;14.73;71.82;101472.41;3580202;40;20398;-62
2022/10/13 08:26:50;;;;;;;22.77;13.05;;;;;;;14.74;71.46;101457.03;3578285;40;20399;-62
2022/10/13 08:29:16;;;;;;;18.45;12.70;;;;;;;13.78;71.48;101288.72;3576790;39;20099;-63
2022/10/13 08:31:42;;;;;;;22.85;12.48;;;;;;;14.44;70.90;101378.81;3578785;40;20043;-63
2022/10/13 08:34:10;;;;;;;20.33;12.13;;;;;;;14.99;71.06;101459.75;3578813;40;20323;-63
2022/10/13 08:36:37;;;;;;;22.58;11.93;;;;;;;15.08;70.69;101461.81;3582313;40;20051;-63
2022/10/13 08:39:04;;;;;;;16.60;11.45;;;;;;;15.13;70.11;101463.31;3579286;40;20075;-63
2022/10/13 08:41:37;;;;;;;20.90;12.18;;;;;;;15.07;70.01;101449.25;3581819;40;20063;-63
2022/10/13 08:44:09;;;;;;;17.52;11.80;;;;;;;15.21;70.45;101466.38;3577342;40;20079;-63
2022/10/13 08:47:03;;;;;;;23.00;11.80;;;;;;;15.21;69.95;101472.63;3578426;40;20045;-62
2022/10/13 08:49:30;;;;;;;18.77;11.88;;;;;;;15.23;69.77;101467.13;3578493;40;20088;-64
2022/10/13 08:51:57;;;;;;;22.38;12.07;;;;;;;15.21;69.76;101461.81;3580173;39;20377;-63
2022/10/13 08:54:25;;;;;;;17.50;11.52;;;;;;;15.26;70.20;101459.66;3584312;40;20095;-63
2022/10/13 08:56:51;;;;;;;21.05;11.35;;;;;;;15.33;69.82;101476.31;3578918;40;20098;-63
2022/10/13 08:59:18;;;;;;;22.77;11.95;;;;;;;15.32;68.90;101453.78;3581613;39;20060;-63
2022/10/13 09:01:50;;;;;;;20.83;11.05;;;;;;;14.93;69.71;101386.22;3579602;40;20090;-63
2022/10/13 09:04:38;;;;;;;20.23;11.20;;;;;;;15.45;69.01;101458.34;3575742;40;20064;-63
2022/10/13 09:07:27;;;;;;;21.17;12.05;;;;;;;14.77;68.93;101335.03;3581413;40;20346;-63
2022/10/13 09:09:54;;;;;;;19.17;11.45;;;;;;;15.46;69.34;101450.09;3578369;40;20052;-63
2022/10/13 09:12:23;;;;;;;21.58;11.95;;;;;;;15.47;69.27;101451.81;3580129;40;20150;-63
2022/10/13 09:15:11;;;;;;;20.60;11.18;;;;;;;15.38;68.99;101447.06;3579576;40;20063;-63
2022/10/13 09:17:40;;;;;;;18.55;11.30;;;;;;;15.46;70.01;101460.06;3581119;40;20060;-63
2022/10/13 09:20:21;;;;;;;18.60;11.75;;;;;;;15.44;69.56;101456.56;3577509;40;20096;-63
2022/10/13 09:23:04;;;;;;;19.83;13.13;;;;;;;15.35;68.83;101449.13;3581620;39;20059;-63
2022/10/13 09:25:44;;;;;;;20.33;11.88;;;;;;;15.29;68.57;101448.59;3582467;40;20068;-63
2022/10/13 09:28:21;;;;;;;23.65;12.57;;;;;;;15.27;69.66;101438.84;3581969;40;20091;-63
2022/10/13 09:30:47;;;;;;;20.40;11.90;;;;;;;15.31;69.27;101445.75;3582410;40;20150;-63
2022/10/13 09:33:22;;;;;;;22.63;12.60;;;;;;;15.25;69.16;101429.94;3576371;40;20066;-63
2022/10/13 09:36:01;;;;;;;19.65;12.60;;;;;;;15.33;68.96;101438.41;3582988;40;20066;-63
2022/10/13 09:38:28;;;;;;;21.35;12.23;;;;;;;15.32;69.31;101439.41;3577573;40;20435;-63
2022/10/13 09:41:09;;;;;;;21.58;12.23;;;;;;;15.29;69.25;101426.94;3580422;39;20055;-63
2022/10/13 09:43:45;;;;;;;23.45;12.48;;;;;;;15.39;68.88;101443.38;3580162;40;20052;-63
2022/10/13 09:46:23;;;;;;;18.40;12.63;;;;;;;15.40;69.25;101444.25;3581593;40;20060;-63
2022/10/13 09:48:57;;;;;;;20.75;12.82;;;;;;;14.77;69.44;101337.72;3582580;40;20060;-64
2022/10/13 09:51:35;;;;;;;20.52;10.95;;;;;;;15.37;69.94;101437.19;3582566;40;20482;-63
2022/10/13 09:54:02;;;;;;;19.05;12.00;;;;;;;15.30;70.06;101433.22;3579403;39;20085;-63
2022/10/13 09:56:49;;;;;;;17.35;11.40;;;;;;;15.32;70.42;101442.09;3583134;40;20055;-64
2022/10/13 09:59:35;;;;;;;27.20;11.75;;;;;;;15.19;70.71;101414.13;3579076;40;20064;-63
2022/10/13 10:02:18;;;;;;;17.42;10.93;;;;;;;15.25;71.70;101435.38;3580236;40;20061;-63
2022/10/13 10:04:45;;;;;;;23.25;11.75;;;;;;;15.20;71.58;101435.72;3583041;40;20426;-63
2022/10/13 10:07:24;;;;;;;14.68;10.88;;;;;;;15.17;72.37;101437.78;3580963;40;20052;-63
2022/10/13 10:10:04;;;;;;;20.85;11.82;;;;;;;14.00;72.81;101240.31;3580053;40;20070;-63
2022/10/13 10:12:36;;;;;;;18.58;11.65;;;;;;;15.12;73.22;101435.38;3581932;40;20056;-63
2022/10/13 10:15:14;;;;;;;19.67;11.88;;;;;;;15.11;73.51;101428.25;3584027;40;20094;-64
2022/10/13 10:18:05;;;;;;;19.02;11.95;;;;;;;15.09;73.98;101422.91;3583519;40;20096;-63
2022/10/13 10:20:56;;;;;;;18.00;12.13;;;;;;;15.06;73.38;101425.88;3583406;40;20392;-63
2022/10/13 10:24:25;;;;;;;19.77;14.13;;;;;;;15.00;74.85;101420.88;3576147;40;20057;-63
2022/10/13 10:27:02;;;;;;;21.33;14.32;;;;;;;15.02;75.14;101413.50;3576381;40;20052;-63
2022/10/13 10:29:52;;;;;;;20.95;13.23;;;;;;;15.01;74.20;101422.63;3581488;40;20076;-63
2022/10/13 10:32:45;;;;;;;29.45;13.70;;;;;;;15.02;74.85;101415.34;3578194;40;20072;-63
2022/10/13 10:35:22;;;;;;;24.50;12.85;;;;;;;15.07;75.89;101421.31;3575348;40;20125;-63
2022/10/13 10:38:29;;;;;;;19.75;12.50;;;;;;;15.11;75.62;101421.97;3577216;40;20413;-63
2022/10/13 10:41:33;;;;;;;25.63;13.68;;;;;;;14.42;76.11;101292.34;3576471;40;20052;-64
2022/10/13 10:44:09;;;;;;;19.83;14.10;;;;;;;15.20;77.05;101411.34;3579839;40;20319;-64
2022/10/13 10:46:44;;;;;;;22.95;13.23;;;;;;;15.00;76.26;101383.00;3575891;40;20059;-63
2022/10/13 10:49:30;;;;;;;20.52;12.38;;;;;;;15.24;75.82;101420.09;3576670;40;20270;-63
2022/10/13 10:52:04;;;;;;;22.70;15.32;;;;;;;15.24;75.92;101409.28;3578547;40;20044;-63
2022/10/13 10:54:49;;;;;;;29.25;17.40;;;;;;;15.33;75.78;101414.03;3576217;40;20386;-64
2022/10/13 10:57:46;;;;;;;25.98;15.70;;;;;;;15.33;75.56;101417.59;3575325;40;20049;-63
2022/10/13 11:00:20;;;;;;;29.45;14.93;;;;;;;15.32;75.37;101415.00;3581463;40;20056;-64
2022/10/13 11:02:53;;;;;;;23.48;13.10;;;;;;;15.32;74.78;101409.59;3579949;40;20049;-63
2022/10/13 11:05:19;;;;;;;17.95;11.95;;;;;;;15.32;75.35;101398.75;3579706;40;20096;-63
2022/10/13 11:07:45;;;;;;;18.33;11.93;;;;;;;15.32;74.88;101396.06;3577582;40;20152;-63
2022/10/13 11:10:15;;;;;;;17.13;11.30;;;;;;;15.36;74.70;101399.41;3576030;40;20343;-63
2022/10/13 11:12:49;;;;;;;18.92;11.93;;;;;;;15.36;75.28;101402.97;3576938;40;20048;-63
2022/10/13 11:15:44;;;;;;;18.08;11.85;;;;;;;15.40;75.39;101395.47;3574567;40;20064;-63
2022/10/13 11:18:53;;;;;;;20.55;11.77;;;;;;;15.45;75.42;101401.44;3578173;40;20298;-63
2022/10/13 11:21:19;;;;;;;17.65;11.45;;;;;;;14.81;74.62;101287.81;3578145;40;20044;-63
2022/10/13 11:23:49;;;;;;;18.23;10.80;;;;;;;15.44;74.20;101391.56;3578436;40;20118;-63
2022/10/13 11:26:41;;;;;;;16.65;10.55;;;;;;;15.37;74.70;101396.56;3575464;40;20502;-63
2022/10/13 11:29:37;;;;;;;18.17;10.90;;;;;;;15.39;75.12;101389.19;3575038;40;20124;-63
2022/10/13 11:32:03;;;;;;;18.98;11.07;;;;;;;15.42;75.29;101378.13;3575222;40;20064;-63